sensor_id;sensor_type;location;lat;lon;timestamp;pressure;altitude;pressure_sealevel;temperature;humidity
42603;BME280;28233;55.748;48.752;2023-06-10T00:00:08;99052.88;;;14.08;96.09
42603;BME280;28233;55.748;48.752;2023-06-10T00:02:11;99059.09;;;14.05;97.03
42603;BME280;28233;55.748;48.752;2023-06-10T00:04:14;99057.50;;;14.04;97.91
42603;BME280;28233;55.748;48.752;2023-06-10T00:06:18;99057.75;;;13.99;98.59
42603;BME280;28233;55.748;48.752;2023-06-10T00:08:21;99063.72;;;14.01;99.46
42603;BME280;28233;55.748;48.752;2023-06-10T00:10:24;99067.22;;;13.98;99.67
42603;BME280;28233;55.748;48.752;2023-06-10T00:12:27;99071.50;;;13.95;99.98
42603;BME280;28233;55.748;48.752;2023-06-10T00:14:31;99074.16;;;13.91;100.00
42603;BME280;28233;55.748;48.752;2023-06-10T00:16:34;99069.00;;;13.90;100.00
42603;BME280;28233;55.748;48.752;2023-06-10T00:18:38;99073.69;;;13.89;100.00
42603;BME280;28233;55.748;48.752;2023-06-10T00:20:41;99064.16;;;13.87;100.00
42603;BME280;28233;55.748;48.752;2023-06-10T00:22:45;99070.47;;;13.87;100.00
42603;BME280;28233;55.748;48.752;2023-06-10T00:24:48;99068.09;;;13.86;100.00
42603;BME280;28233;55.748;48.752;2023-06-10T00:26:51;99078.78;;;13.87;100.00
42603;BME280;28233;55.748;48.752;2023-06-10T00:28:54;99081.53;;;13.87;100.00
42603;BME280;28233;55.748;48.752;2023-06-10T00:30:56;99086.72;;;13.89;100.00
42603;BME280;28233;55.748;48.752;2023-06-10T00:33:00;99093.41;;;13.88;100.00
42603;BME280;28233;55.748;48.752;2023-06-10T00:35:03;99100.19;;;13.90;100.00
42603;BME280;28233;55.748;48.752;2023-06-10T00:37:07;99099.00;;;13.91;100.00
42603;BME280;28233;55.748;48.752;2023-06-10T00:39:10;99100.63;;;13.92;100.00
42603;BME280;28233;55.748;48.752;2023-06-10T00:41:13;99100.63;;;13.92;100.00
42603;BME280;28233;55.748;48.752;2023-06-10T00:43:16;99089.47;;;13.89;100.00
42603;BME280;28233;55.748;48.752;2023-06-10T00:45:19;99089.13;;;13.90;100.00
42603;BME280;28233;55.748;48.752;2023-06-10T00:47:22;99095.78;;;13.89;100.00
42603;BME280;28233;55.748;48.752;2023-06-10T00:49:25;99089.13;;;13.90;100.00
42603;BME280;28233;55.748;48.752;2023-06-10T00:51:28;99090.72;;;13.91;100.00
42603;BME280;28233;55.748;48.752;2023-06-10T00:53:32;99092.34;;;13.92;100.00
42603;BME280;28233;55.748;48.752;2023-06-10T00:55:35;99095.53;;;13.94;100.00
42603;BME280;28233;55.748;48.752;2023-06-10T00:57:39;99093.59;;;13.95;100.00
42603;BME280;28233;55.748;48.752;2023-06-10T00:59:43;99092.41;;;13.96;100.00
42603;BME280;28233;55.748;48.752;2023-06-10T01:01:49;99103.81;;;13.94;100.00
42603;BME280;28233;55.748;48.752;2023-06-10T01:03:54;99110.16;;;13.95;100.00
42603;BME280;28233;55.748;48.752;2023-06-10T01:08:52;99093.22;;;13.96;100.00
42603;BME280;28233;55.748;48.752;2023-06-10T01:11:00;99104.53;;;13.91;100.00
42603;BME280;28233;55.748;48.752;2023-06-10T01:13:09;99114.97;;;13.98;100.00
42603;BME280;28233;55.748;48.752;2023-06-10T01:15:17;99114.16;;;13.98;100.00
42603;BME280;28233;55.748;48.752;2023-06-10T01:17:21;99114.50;;;13.96;100.00
42603;BME280;28233;55.748;48.752;2023-06-10T01:19:24;99123.16;;;13.94;100.00
42603;BME280;28233;55.748;48.752;2023-06-10T01:21:27;99116.94;;;13.98;100.00
42603;BME280;28233;55.748;48.752;2023-06-10T01:23:30;99117.84;;;14.02;100.00
42603;BME280;28233;55.748;48.752;2023-06-10T01:25:37;99123.78;;;14.04;100.00
42603;BME280;28233;55.748;48.752;2023-06-10T01:27:42;99119.88;;;14.05;100.00
42603;BME280;28233;55.748;48.752;2023-06-10T01:29:50;99124.41;;;14.13;100.00
42603;BME280;28233;55.748;48.752;2023-06-10T01:32:15;99115.53;;;14.20;100.00
42603;BME280;28233;55.748;48.752;2023-06-10T01:34:19;99122.75;;;14.24;100.00
42603;BME280;28233;55.748;48.752;2023-06-10T01:36:24;99122.13;;;14.31;100.00
42603;BME280;28233;55.748;48.752;2023-06-10T01:38:27;99128.91;;;14.33;99.75
42603;BME280;28233;55.748;48.752;2023-06-10T01:40:33;99123.09;;;14.38;99.33
42603;BME280;28233;55.748;48.752;2023-06-10T01:42:37;99119.25;;;14.43;98.66
42603;BME280;28233;55.748;48.752;2023-06-10T01:44:40;99116.22;;;14.48;98.30
42603;BME280;28233;55.748;48.752;2023-06-10T01:46:44;99102.41;;;14.48;97.82
42603;BME280;28233;55.748;48.752;2023-06-10T01:48:47;99115.16;;;14.53;97.93
42603;BME280;28233;55.748;48.752;2023-06-10T01:50:50;99107.78;;;14.57;97.70
42603;BME280;28233;55.748;48.752;2023-06-10T01:52:53;99114.66;;;14.63;97.37
42603;BME280;28233;55.748;48.752;2023-06-10T01:54:56;99118.56;;;14.62;97.59
42603;BME280;28233;55.748;48.752;2023-06-10T01:56:59;99128.53;;;14.67;97.33
42603;BME280;28233;55.748;48.752;2023-06-10T01:59:02;99130.53;;;14.66;96.88
42603;BME280;28233;55.748;48.752;2023-06-10T02:01:05;99138.66;;;14.59;97.07
42603;BME280;28233;55.748;48.752;2023-06-10T02:03:08;99139.97;;;14.49;97.36
42603;BME280;28233;55.748;48.752;2023-06-10T02:05:11;99151.28;;;14.44;97.79
42603;BME280;28233;55.748;48.752;2023-06-10T02:07:14;99149.13;;;14.37;98.14
42603;BME280;28233;55.748;48.752;2023-06-10T02:09:17;99147.00;;;14.31;98.25
42603;BME280;28233;55.748;48.752;2023-06-10T02:11:21;99158.22;;;14.22;98.82
42603;BME280;28233;55.748;48.752;2023-06-10T02:13:24;99158.59;;;14.21;99.42
42603;BME280;28233;55.748;48.752;2023-06-10T02:15:27;99160.91;;;14.19;99.62
42603;BME280;28233;55.748;48.752;2023-06-10T02:17:30;99158.75;;;14.12;100.00
42603;BME280;28233;55.748;48.752;2023-06-10T02:19:53;99167.47;;;14.14;100.00
42603;BME280;28233;55.748;48.752;2023-06-10T02:21:55;99165.41;;;14.11;100.00
42603;BME280;28233;55.748;48.752;2023-06-10T02:23:58;99172.09;;;14.10;100.00
42603;BME280;28233;55.748;48.752;2023-06-10T02:26:01;99174.41;;;14.08;100.00
42603;BME280;28233;55.748;48.752;2023-06-10T02:28:04;99181.09;;;14.07;100.00
42603;BME280;28233;55.748;48.752;2023-06-10T02:30:07;99178.78;;;14.09;100.00
42603;BME280;28233;55.748;48.752;2023-06-10T02:32:12;99176.63;;;14.02;100.00
42603;BME280;28233;55.748;48.752;2023-06-10T02:34:15;99190.94;;;13.92;100.00
42603;BME280;28233;55.748;48.752;2023-06-10T02:36:18;99190.28;;;13.83;100.00
42603;BME280;28233;55.748;48.752;2023-06-10T02:38:21;99183.16;;;13.82;100.00
42603;BME280;28233;55.748;48.752;2023-06-10T02:40:24;99177.31;;;13.83;100.00
42603;BME280;28233;55.748;48.752;2023-06-10T02:42:27;99184.22;;;13.77;100.00
42603;BME280;28233;55.748;48.752;2023-06-10T02:44:29;99186.06;;;13.73;100.00
42603;BME280;28233;55.748;48.752;2023-06-10T02:46:32;99190.47;;;13.74;100.00
42603;BME280;28233;55.748;48.752;2023-06-10T02:48:42;99190.25;;;13.67;100.00
42603;BME280;28233;55.748;48.752;2023-06-10T02:50:46;99197.16;;;13.61;100.00
42603;BME280;28233;55.748;48.752;2023-06-10T02:52:49;99197.28;;;13.52;100.00
42603;BME280;28233;55.748;48.752;2023-06-10T02:54:52;99219.53;;;13.43;100.00
42603;BME280;28233;55.748;48.752;2023-06-10T02:56:55;99222.88;;;13.37;100.00
42603;BME280;28233;55.748;48.752;2023-06-10T02:58:59;99205.72;;;13.31;100.00
42603;BME280;28233;55.748;48.752;2023-06-10T03:01:02;99198.38;;;13.35;100.00
42603;BME280;28233;55.748;48.752;2023-06-10T03:03:05;99195.63;;;13.35;100.00
42603;BME280;28233;55.748;48.752;2023-06-10T03:05:08;99204.81;;;13.39;100.00
42603;BME280;28233;55.748;48.752;2023-06-10T03:07:15;99197.91;;;13.45;100.00
42603;BME280;28233;55.748;48.752;2023-06-10T03:09:18;99194.31;;;13.45;100.00
42603;BME280;28233;55.748;48.752;2023-06-10T03:11:21;99199.75;;;13.41;100.00
42603;BME280;28233;55.748;48.752;2023-06-10T03:13:24;99201.50;;;13.34;100.00
42603;BME280;28233;55.748;48.752;2023-06-10T03:15:26;99190.88;;;13.36;100.00
42603;BME280;28233;55.748;48.752;2023-06-10T03:17:31;99198.50;;;13.39;100.00
42603;BME280;28233;55.748;48.752;2023-06-10T03:19:35;99200.88;;;13.40;100.00
42603;BME280;28233;55.748;48.752;2023-06-10T03:21:44;99205.03;;;13.46;99.43
42603;BME280;28233;55.748;48.752;2023-06-10T03:23:47;99203.19;;;13.50;99.42
42603;BME280;28233;55.748;48.752;2023-06-10T03:25:50;99214.19;;;13.63;99.15
42603;BME280;28233;55.748;48.752;2023-06-10T03:27:53;99221.50;;;13.71;98.52
42603;BME280;28233;55.748;48.752;2023-06-10T03:29:55;99220.72;;;13.70;97.44
42603;BME280;28233;55.748;48.752;2023-06-10T03:31:58;99231.75;;;13.70;97.13
42603;BME280;28233;55.748;48.752;2023-06-10T03:34:01;99225.63;;;13.77;97.17
42603;BME280;28233;55.748;48.752;2023-06-10T03:36:04;99238.31;;;13.78;96.80
42603;BME280;28233;55.748;48.752;2023-06-10T03:38:07;99229.13;;;13.74;95.91
42603;BME280;28233;55.748;48.752;2023-06-10T03:40:10;99229.53;;;13.88;95.80
42603;BME280;28233;55.748;48.752;2023-06-10T03:42:13;99227.94;;;14.03;95.21
42603;BME280;28233;55.748;48.752;2023-06-10T03:44:16;99238.75;;;14.08;94.56
42603;BME280;28233;55.748;48.752;2023-06-10T03:46:19;99232.28;;;14.16;93.89
42603;BME280;28233;55.748;48.752;2023-06-10T03:48:22;99236.75;;;14.21;93.21
42603;BME280;28233;55.748;48.752;2023-06-10T03:50:26;99246.28;;;14.24;92.77
42603;BME280;28233;55.748;48.752;2023-06-10T03:52:30;99245.56;;;14.27;92.62
42603;BME280;28233;55.748;48.752;2023-06-10T03:54:33;99244.25;;;14.36;92.59
42603;BME280;28233;55.748;48.752;2023-06-10T03:56:37;99234.03;;;14.37;91.99
42603;BME280;28233;55.748;48.752;2023-06-10T03:58:40;99241.00;;;14.47;91.50
42603;BME280;28233;55.748;48.752;2023-06-10T04:00:46;99257.13;;;14.45;91.13
42603;BME280;28233;55.748;48.752;2023-06-10T04:02:49;99263.41;;;14.29;91.29
42603;BME280;28233;55.748;48.752;2023-06-10T04:04:54;99254.56;;;14.24;91.47
42603;BME280;28233;55.748;48.752;2023-06-10T04:06:57;99244.44;;;14.28;92.08
42603;BME280;28233;55.748;48.752;2023-06-10T04:09:00;99239.72;;;14.28;92.30
42603;BME280;28233;55.748;48.752;2023-06-10T04:11:03;99238.28;;;14.34;92.50
42603;BME280;28233;55.748;48.752;2023-06-10T04:13:05;99228.13;;;14.38;92.83
42603;BME280;28233;55.748;48.752;2023-06-10T04:15:08;99233.66;;;14.38;92.47
42603;BME280;28233;55.748;48.752;2023-06-10T04:17:12;99248.63;;;14.37;93.25
42603;BME280;28233;55.748;48.752;2023-06-10T04:19:14;99250.84;;;14.32;93.47
42603;BME280;28233;55.748;48.752;2023-06-10T04:21:17;99252.28;;;14.26;93.65
42603;BME280;28233;55.748;48.752;2023-06-10T04:23:24;99245.75;;;14.18;94.32
42603;BME280;28233;55.748;48.752;2023-06-10T04:25:27;99262.41;;;14.22;94.45
42603;BME280;28233;55.748;48.752;2023-06-10T04:27:31;99255.63;;;14.19;94.85
42603;BME280;28233;55.748;48.752;2023-06-10T04:29:34;99264.47;;;14.25;94.98
42603;BME280;28233;55.748;48.752;2023-06-10T04:31:36;99271.53;;;14.38;94.49
42603;BME280;28233;55.748;48.752;2023-06-10T04:33:39;99276.53;;;14.32;93.94
42603;BME280;28233;55.748;48.752;2023-06-10T04:35:42;99276.09;;;14.30;94.26
42603;BME280;28233;55.748;48.752;2023-06-10T04:37:45;99276.69;;;14.24;94.02
42603;BME280;28233;55.748;48.752;2023-06-10T04:39:48;99277.03;;;14.22;94.24
42603;BME280;28233;55.748;48.752;2023-06-10T04:41:51;99267.34;;;14.28;94.53
42603;BME280;28233;55.748;48.752;2023-06-10T04:43:54;99265.47;;;14.32;94.23
42603;BME280;28233;55.748;48.752;2023-06-10T04:45:57;99271.00;;;14.32;95.04
42603;BME280;28233;55.748;48.752;2023-06-10T04:48:00;99269.78;;;14.46;95.37
42603;BME280;28233;55.748;48.752;2023-06-10T04:50:03;99269.38;;;14.59;95.08
42603;BME280;28233;55.748;48.752;2023-06-10T04:52:07;99271.28;;;14.71;94.78
42603;BME280;28233;55.748;48.752;2023-06-10T04:54:10;99259.88;;;14.73;93.76
42603;BME280;28233;55.748;48.752;2023-06-10T04:56:14;99265.22;;;14.82;93.68
42603;BME280;28233;55.748;48.752;2023-06-10T04:58:17;99259.94;;;14.92;93.03
42603;BME280;28233;55.748;48.752;2023-06-10T05:00:20;99253.91;;;14.87;92.87
42603;BME280;28233;55.748;48.752;2023-06-10T05:02:23;99252.09;;;14.78;92.44
42603;BME280;28233;55.748;48.752;2023-06-10T05:04:26;99245.75;;;14.78;92.68
42603;BME280;28233;55.748;48.752;2023-06-10T05:06:29;99244.69;;;14.83;93.39
42603;BME280;28233;55.748;48.752;2023-06-10T05:08:33;99233.47;;;14.91;93.32
42603;BME280;28233;55.748;48.752;2023-06-10T05:10:36;99243.06;;;14.97;93.06
42603;BME280;28233;55.748;48.752;2023-06-10T05:12:39;99244.16;;;15.09;92.89
42603;BME280;28233;55.748;48.752;2023-06-10T05:14:42;99262.25;;;15.22;92.30
42603;BME280;28233;55.748;48.752;2023-06-10T05:16:48;99284.63;;;15.33;91.56
42603;BME280;28233;55.748;48.752;2023-06-10T05:18:51;99305.28;;;15.19;89.88
42603;BME280;28233;55.748;48.752;2023-06-10T05:20:54;99291.19;;;14.93;90.20
42603;BME280;28233;55.748;48.752;2023-06-10T05:22:57;99300.47;;;14.85;90.47
42603;BME280;28233;55.748;48.752;2023-06-10T05:25:00;99312.56;;;14.64;91.22
42603;BME280;28233;55.748;48.752;2023-06-10T05:27:06;99316.31;;;14.44;90.62
42603;BME280;28233;55.748;48.752;2023-06-10T05:29:09;99309.28;;;14.46;91.73
42603;BME280;28233;55.748;48.752;2023-06-10T05:31:12;99312.56;;;14.36;92.45
42603;BME280;28233;55.748;48.752;2023-06-10T05:33:15;99309.72;;;14.20;93.13
42603;BME280;28233;55.748;48.752;2023-06-10T05:35:18;99317.47;;;14.14;93.77
42603;BME280;28233;55.748;48.752;2023-06-10T05:37:21;99327.31;;;14.00;94.63
42603;BME280;28233;55.748;48.752;2023-06-10T05:39:24;99328.22;;;13.91;95.54
42603;BME280;28233;55.748;48.752;2023-06-10T05:41:27;99322.84;;;13.83;97.45
42603;BME280;28233;55.748;48.752;2023-06-10T05:43:30;99321.50;;;13.64;99.09
42603;BME280;28233;55.748;48.752;2023-06-10T05:45:32;99332.53;;;13.52;100.00
42603;BME280;28233;55.748;48.752;2023-06-10T05:47:35;99341.66;;;13.52;100.00
42603;BME280;28233;55.748;48.752;2023-06-10T05:49:38;99347.16;;;13.40;100.00
42603;BME280;28233;55.748;48.752;2023-06-10T05:51:41;99349.56;;;13.29;100.00
42603;BME280;28233;55.748;48.752;2023-06-10T05:53:44;99360.56;;;13.17;100.00
42603;BME280;28233;55.748;48.752;2023-06-10T05:55:48;99362.72;;;13.11;100.00
42603;BME280;28233;55.748;48.752;2023-06-10T05:58:01;99361.47;;;13.09;100.00
42603;BME280;28233;55.748;48.752;2023-06-10T06:00:04;99358.72;;;13.09;100.00
42603;BME280;28233;55.748;48.752;2023-06-10T06:02:07;99360.28;;;12.98;100.00
42603;BME280;28233;55.748;48.752;2023-06-10T06:04:10;99360.19;;;12.94;100.00
42603;BME280;28233;55.748;48.752;2023-06-10T06:06:13;99363.41;;;12.96;100.00
42603;BME280;28233;55.748;48.752;2023-06-10T06:08:16;99379.97;;;12.96;100.00
42603;BME280;28233;55.748;48.752;2023-06-10T06:10:21;99386.38;;;13.00;100.00
42603;BME280;28233;55.748;48.752;2023-06-10T06:12:24;99377.22;;;13.08;100.00
42603;BME280;28233;55.748;48.752;2023-06-10T06:14:30;99390.63;;;12.98;100.00
42603;BME280;28233;55.748;48.752;2023-06-10T06:16:33;99393.75;;;12.96;100.00
42603;BME280;28233;55.748;48.752;2023-06-10T06:18:36;99395.13;;;13.02;100.00
42603;BME280;28233;55.748;48.752;2023-06-10T06:20:39;99389.66;;;13.15;100.00
42603;BME280;28233;55.748;48.752;2023-06-10T06:22:42;99389.81;;;13.30;100.00
42603;BME280;28233;55.748;48.752;2023-06-10T06:24:45;99393.63;;;13.38;100.00
42603;BME280;28233;55.748;48.752;2023-06-10T06:26:49;99391.09;;;13.45;100.00
42603;BME280;28233;55.748;48.752;2023-06-10T06:28:52;99392.22;;;13.57;100.00
42603;BME280;28233;55.748;48.752;2023-06-10T06:30:56;99389.03;;;13.67;100.00
42603;BME280;28233;55.748;48.752;2023-06-10T06:32:59;99395.34;;;13.80;100.00
42603;BME280;28233;55.748;48.752;2023-06-10T06:35:02;99394.63;;;13.83;100.00
42603;BME280;28233;55.748;48.752;2023-06-10T06:37:05;99387.03;;;13.92;100.00
42603;BME280;28233;55.748;48.752;2023-06-10T06:39:08;99386.47;;;13.99;100.00
42603;BME280;28233;55.748;48.752;2023-06-10T06:41:11;99388.63;;;14.05;100.00
42603;BME280;28233;55.748;48.752;2023-06-10T06:43:14;99386.09;;;14.12;100.00
42603;BME280;28233;55.748;48.752;2023-06-10T06:45:16;99395.16;;;14.25;100.00
42603;BME280;28233;55.748;48.752;2023-06-10T06:47:19;99393.50;;;14.36;100.00
42603;BME280;28233;55.748;48.752;2023-06-10T06:49:22;99399.25;;;14.56;100.00
42603;BME280;28233;55.748;48.752;2023-06-10T06:51:25;99397.22;;;14.69;100.00
42603;BME280;28233;55.748;48.752;2023-06-10T06:53:28;99391.88;;;14.48;93.95
42603;BME280;28233;55.748;48.752;2023-06-10T06:55:33;99401.13;;;14.27;90.03
42603;BME280;28233;55.748;48.752;2023-06-10T06:57:36;99404.59;;;14.24;90.78
42603;BME280;28233;55.748;48.752;2023-06-10T06:59:39;99401.88;;;14.12;88.38
42603;BME280;28233;55.748;48.752;2023-06-10T07:01:42;99408.31;;;14.16;92.16
42603;BME280;28233;55.748;48.752;2023-06-10T07:03:45;99421.44;;;14.07;89.84
42603;BME280;28233;55.748;48.752;2023-06-10T07:05:48;99418.94;;;14.02;91.72
42603;BME280;28233;55.748;48.752;2023-06-10T07:07:50;99417.53;;;14.08;94.66
42603;BME280;28233;55.748;48.752;2023-06-10T07:09:57;99414.31;;;14.18;95.79
42603;BME280;28233;55.748;48.752;2023-06-10T07:12:00;99409.78;;;14.26;96.33
42603;BME280;28233;55.748;48.752;2023-06-10T07:14:03;99415.09;;;14.19;95.20
42603;BME280;28233;55.748;48.752;2023-06-10T07:16:05;99414.50;;;14.13;97.15
42603;BME280;28233;55.748;48.752;2023-06-10T07:18:08;99423.69;;;14.29;98.58
42603;BME280;28233;55.748;48.752;2023-06-10T07:20:11;99427.63;;;14.28;98.14
42603;BME280;28233;55.748;48.752;2023-06-10T07:22:14;99428.44;;;14.16;96.20
42603;BME280;28233;55.748;48.752;2023-06-10T07:24:17;99428.69;;;14.11;95.91
42603;BME280;28233;55.748;48.752;2023-06-10T07:26:22;99418.31;;;14.21;98.81
42603;BME280;28233;55.748;48.752;2023-06-10T07:28:25;99428.09;;;14.30;99.04
42603;BME280;28233;55.748;48.752;2023-06-10T07:30:29;99425.56;;;14.25;96.97
42603;BME280;28233;55.748;48.752;2023-06-10T07:32:32;99426.69;;;14.24;96.52
42603;BME280;28233;55.748;48.752;2023-06-10T07:34:35;99431.97;;;14.29;97.22
42603;BME280;28233;55.748;48.752;2023-06-10T07:36:38;99433.53;;;14.14;94.26
42603;BME280;28233;55.748;48.752;2023-06-10T07:38:41;99430.19;;;14.09;93.99
42603;BME280;28233;55.748;48.752;2023-06-10T07:40:45;99426.50;;;14.05;94.95
42603;BME280;28233;55.748;48.752;2023-06-10T07:42:47;99439.03;;;14.14;95.24
42603;BME280;28233;55.748;48.752;2023-06-10T07:44:50;99433.63;;;14.18;94.33
42603;BME280;28233;55.748;48.752;2023-06-10T07:46:53;99437.53;;;14.17;94.46
42603;BME280;28233;55.748;48.752;2023-06-10T07:48:56;99432.34;;;14.15;93.55
42603;BME280;28233;55.748;48.752;2023-06-10T07:50:59;99439.03;;;14.27;94.88
42603;BME280;28233;55.748;48.752;2023-06-10T07:53:02;99432.31;;;14.40;95.42
42603;BME280;28233;55.748;48.752;2023-06-10T07:55:06;99442.00;;;14.34;91.57
42603;BME280;28233;55.748;48.752;2023-06-10T07:57:10;99442.56;;;14.40;90.34
42603;BME280;28233;55.748;48.752;2023-06-10T07:59:13;99441.38;;;14.53;91.27
42603;BME280;28233;55.748;48.752;2023-06-10T08:01:16;99439.81;;;14.80;91.87
42603;BME280;28233;55.748;48.752;2023-06-10T08:03:19;99432.72;;;14.95;88.77
42603;BME280;28233;55.748;48.752;2023-06-10T08:05:22;99434.72;;;15.10;88.02
42603;BME280;28233;55.748;48.752;2023-06-10T08:07:25;99452.44;;;15.21;87.48
42603;BME280;28233;55.748;48.752;2023-06-10T08:09:28;99457.00;;;15.01;84.51
42603;BME280;28233;55.748;48.752;2023-06-10T08:11:31;99455.09;;;15.18;89.29
42603;BME280;28233;55.748;48.752;2023-06-10T08:13:34;99471.00;;;15.37;89.14
42603;BME280;28233;55.748;48.752;2023-06-10T08:15:36;99455.75;;;15.43;87.23
42603;BME280;28233;55.748;48.752;2023-06-10T08:17:39;99465.28;;;15.30;84.62
42603;BME280;28233;55.748;48.752;2023-06-10T08:19:42;99466.81;;;15.27;85.73
42603;BME280;28233;55.748;48.752;2023-06-10T08:21:45;99477.19;;;15.02;82.80
42603;BME280;28233;55.748;48.752;2023-06-10T08:23:52;99491.66;;;15.11;86.84
42603;BME280;28233;55.748;48.752;2023-06-10T08:25:55;99487.56;;;15.05;85.53
42603;BME280;28233;55.748;48.752;2023-06-10T08:27:58;99485.53;;;14.90;83.55
42603;BME280;28233;55.748;48.752;2023-06-10T08:30:02;99481.41;;;14.84;84.73
42603;BME280;28233;55.748;48.752;2023-06-10T08:32:07;99490.19;;;14.73;79.72
42603;BME280;28233;55.748;48.752;2023-06-10T08:34:10;99482.25;;;14.72;82.78
42603;BME280;28233;55.748;48.752;2023-06-10T08:36:14;99490.78;;;14.67;81.71
42603;BME280;28233;55.748;48.752;2023-06-10T08:38:17;99486.13;;;14.83;84.81
42603;BME280;28233;55.748;48.752;2023-06-10T08:40:20;99491.72;;;14.99;84.17
42603;BME280;28233;55.748;48.752;2023-06-10T08:42:33;99499.50;;;15.09;83.92
42603;BME280;28233;55.748;48.752;2023-06-10T08:44:37;99497.19;;;15.11;83.02
42603;BME280;28233;55.748;48.752;2023-06-10T08:46:42;99495.81;;;15.17;84.89
42603;BME280;28233;55.748;48.752;2023-06-10T08:48:48;99491.59;;;15.23;85.71
42603;BME280;28233;55.748;48.752;2023-06-10T08:50:57;99503.66;;;15.15;81.40
42603;BME280;28233;55.748;48.752;2023-06-10T08:53:00;99504.50;;;15.04;81.00
42603;BME280;28233;55.748;48.752;2023-06-10T08:55:21;99504.06;;;15.01;82.17
42603;BME280;28233;55.748;48.752;2023-06-10T08:57:33;99500.94;;;15.03;82.54
42603;BME280;28233;55.748;48.752;2023-06-10T08:59:36;99496.41;;;15.11;81.28
42603;BME280;28233;55.748;48.752;2023-06-10T09:01:39;99510.09;;;15.19;81.46
42603;BME280;28233;55.748;48.752;2023-06-10T09:03:43;99505.28;;;15.32;81.25
42603;BME280;28233;55.748;48.752;2023-06-10T09:05:46;99503.06;;;15.38;78.82
42603;BME280;28233;55.748;48.752;2023-06-10T09:07:51;99498.44;;;15.42;77.71
42603;BME280;28233;55.748;48.752;2023-06-10T09:09:54;99505.84;;;15.38;72.97
42603;BME280;28233;55.748;48.752;2023-06-10T09:11:58;99506.66;;;15.38;71.57
42603;BME280;28233;55.748;48.752;2023-06-10T09:14:01;99510.75;;;15.29;72.35
42603;BME280;28233;55.748;48.752;2023-06-10T09:16:04;99504.44;;;15.16;71.63
42603;BME280;28233;55.748;48.752;2023-06-10T09:18:07;99506.06;;;15.17;71.89
42603;BME280;28233;55.748;48.752;2023-06-10T09:20:11;99516.31;;;15.16;71.13
42603;BME280;28233;55.748;48.752;2023-06-10T09:22:14;99518.84;;;15.21;70.55
42603;BME280;28233;55.748;48.752;2023-06-10T09:24:18;99519.75;;;15.26;69.54
42603;BME280;28233;55.748;48.752;2023-06-10T09:26:28;99523.75;;;15.28;69.58
42603;BME280;28233;55.748;48.752;2023-06-10T09:28:31;99532.31;;;15.23;66.90
42603;BME280;28233;55.748;48.752;2023-06-10T09:30:34;99531.78;;;15.17;67.33
42603;BME280;28233;55.748;48.752;2023-06-10T09:32:40;99524.78;;;15.08;66.48
42603;BME280;28233;55.748;48.752;2023-06-10T09:34:44;99523.53;;;15.05;67.35
42603;BME280;28233;55.748;48.752;2023-06-10T09:36:47;99527.56;;;15.08;65.11
42603;BME280;28233;55.748;48.752;2023-06-10T09:38:50;99532.72;;;15.09;64.90
42603;BME280;28233;55.748;48.752;2023-06-10T09:40:55;99513.56;;;15.16;65.12
42603;BME280;28233;55.748;48.752;2023-06-10T09:42:59;99502.63;;;15.36;65.07
42603;BME280;28233;55.748;48.752;2023-06-10T09:45:05;99498.63;;;15.33;64.38
42603;BME280;28233;55.748;48.752;2023-06-10T09:47:09;99515.13;;;15.30;65.04
42603;BME280;28233;55.748;48.752;2023-06-10T09:49:21;99509.56;;;15.30;65.39
42603;BME280;28233;55.748;48.752;2023-06-10T09:51:24;99514.31;;;15.29;65.92
42603;BME280;28233;55.748;48.752;2023-06-10T09:53:27;99515.16;;;15.46;65.94
42603;BME280;28233;55.748;48.752;2023-06-10T09:55:33;99520.09;;;15.68;64.13
42603;BME280;28233;55.748;48.752;2023-06-10T09:57:36;99533.53;;;15.82;61.42
42603;BME280;28233;55.748;48.752;2023-06-10T09:59:39;99516.56;;;15.99;61.08
42603;BME280;28233;55.748;48.752;2023-06-10T10:01:42;99521.09;;;16.23;60.66
42603;BME280;28233;55.748;48.752;2023-06-10T10:03:51;99518.22;;;16.20;60.39
42603;BME280;28233;55.748;48.752;2023-06-10T10:05:58;99527.09;;;16.10;60.06
42603;BME280;28233;55.748;48.752;2023-06-10T10:08:03;99519.50;;;15.91;60.56
42603;BME280;28233;55.748;48.752;2023-06-10T10:10:06;99522.44;;;15.82;60.02
42603;BME280;28233;55.748;48.752;2023-06-10T10:12:12;99514.94;;;15.82;60.44
42603;BME280;28233;55.748;48.752;2023-06-10T10:14:16;99521.56;;;15.94;60.30
42603;BME280;28233;55.748;48.752;2023-06-10T10:16:31;99505.81;;;15.82;59.80
42603;BME280;28233;55.748;48.752;2023-06-10T10:18:39;99511.59;;;15.61;59.60
42603;BME280;28233;55.748;48.752;2023-06-10T10:20:47;99504.34;;;15.40;59.94
42603;BME280;28233;55.748;48.752;2023-06-10T10:22:52;99504.25;;;15.53;61.59
42603;BME280;28233;55.748;48.752;2023-06-10T10:25:02;99515.81;;;15.71;61.00
42603;BME280;28233;55.748;48.752;2023-06-10T10:27:12;99523.34;;;15.70;59.37
42603;BME280;28233;55.748;48.752;2023-06-10T10:29:39;99524.75;;;15.80;57.48
42603;BME280;28233;55.748;48.752;2023-06-10T10:31:43;99531.28;;;16.03;56.52
42603;BME280;28233;55.748;48.752;2023-06-10T10:33:59;99514.31;;;16.21;55.85
42603;BME280;28233;55.748;48.752;2023-06-10T10:36:04;99514.06;;;16.45;55.68
42603;BME280;28233;55.748;48.752;2023-06-10T10:38:09;99518.69;;;16.57;55.76
42603;BME280;28233;55.748;48.752;2023-06-10T10:40:13;99522.78;;;16.44;53.71
42603;BME280;28233;55.748;48.752;2023-06-10T10:42:17;99520.31;;;16.07;53.67
42603;BME280;28233;55.748;48.752;2023-06-10T10:44:21;99511.72;;;15.96;55.06
42603;BME280;28233;55.748;48.752;2023-06-10T10:46:24;99522.38;;;15.78;55.06
42603;BME280;28233;55.748;48.752;2023-06-10T10:48:33;99530.69;;;15.78;53.78